sensor_id;sensor_type;location;lat;lon;timestamp;P1;durP1;ratioP1;P2;durP2;ratioP2
61144;SDS011;47026;51.208;3.288;2022-08-01T00:01:56;5.30;;;2.00;;
61144;SDS011;47026;51.208;3.288;2022-08-01T00:04:22;5.68;;;1.98;;
61144;SDS011;47026;51.208;3.288;2022-08-01T00:06:48;7.28;;;1.85;;
61144;SDS011;47026;51.208;3.288;2022-08-01T00:09:14;5.68;;;1.83;;
61144;SDS011;47026;51.208;3.288;2022-08-01T00:11:40;5.22;;;1.80;;
61144;SDS011;47026;51.208;3.288;2022-08-01T00:14:07;5.40;;;2.00;;
61144;SDS011;47026;51.208;3.288;2022-08-01T00:16:34;6.07;;;2.05;;
61144;SDS011;47026;51.208;3.288;2022-08-01T00:19:00;7.47;;;1.77;;
61144;SDS011;47026;51.208;3.288;2022-08-01T00:21:26;5.07;;;1.60;;
61144;SDS011;47026;51.208;3.288;2022-08-01T00:23:52;3.97;;;1.77;;
61144;SDS011;47026;51.208;3.288;2022-08-01T00:26:18;3.00;;;1.55;;
61144;SDS011;47026;51.208;3.288;2022-08-01T00:28:45;4.75;;;1.45;;
61144;SDS011;47026;51.208;3.288;2022-08-01T00:31:11;5.72;;;1.70;;
61144;SDS011;47026;51.208;3.288;2022-08-01T00:33:36;4.80;;;1.75;;
61144;SDS011;47026;51.208;3.288;2022-08-01T00:36:02;4.65;;;1.52;;
61144;SDS011;47026;51.208;3.288;2022-08-01T00:38:28;6.32;;;1.95;;
61144;SDS011;47026;51.208;3.288;2022-08-01T00:40:54;4.80;;;1.52;;
61144;SDS011;47026;51.208;3.288;2022-08-01T00:43:20;3.15;;;1.50;;
61144;SDS011;47026;51.208;3.288;2022-08-01T00:45:46;4.95;;;1.42;;
61144;SDS011;47026;51.208;3.288;2022-08-01T00:48:12;4.93;;;1.45;;
61144;SDS011;47026;51.208;3.288;2022-08-01T00:50:38;4.22;;;1.12;;
61144;SDS011;47026;51.208;3.288;2022-08-01T00:53:04;5.37;;;1.50;;
61144;SDS011;47026;51.208;3.288;2022-08-01T00:55:31;4.15;;;1.30;;
61144;SDS011;47026;51.208;3.288;2022-08-01T00:57:57;7.25;;;1.40;;
61144;SDS011;47026;51.208;3.288;2022-08-01T01:00:24;7.80;;;1.50;;
61144;SDS011;47026;51.208;3.288;2022-08-01T01:02:50;3.67;;;1.30;;
61144;SDS011;47026;51.208;3.288;2022-08-01T01:05:16;3.03;;;1.15;;
61144;SDS011;47026;51.208;3.288;2022-08-01T01:10:19;4.82;;;1.00;;
61144;SDS011;47026;51.208;3.288;2022-08-01T01:15:58;5.45;;;1.35;;
61144;SDS011;47026;51.208;3.288;2022-08-01T01:21:07;5.07;;;1.25;;
61144;SDS011;47026;51.208;3.288;2022-08-01T01:29:48;5.50;;;1.30;;
61144;SDS011;47026;51.208;3.288;2022-08-01T01:32:28;2.83;;;1.20;;
61144;SDS011;47026;51.208;3.288;2022-08-01T01:34:59;2.58;;;1.20;;
61144;SDS011;47026;51.208;3.288;2022-08-01T01:37:34;6.95;;;1.30;;
61144;SDS011;47026;51.208;3.288;2022-08-01T01:40:04;2.30;;;1.10;;
61144;SDS011;47026;51.208;3.288;2022-08-01T01:42:32;2.50;;;1.00;;
61144;SDS011;47026;51.208;3.288;2022-08-01T01:45:00;3.28;;;1.20;;
61144;SDS011;47026;51.208;3.288;2022-08-01T01:47:27;3.15;;;1.23;;
61144;SDS011;47026;51.208;3.288;2022-08-01T01:49:54;4.15;;;1.30;;
61144;SDS011;47026;51.208;3.288;2022-08-01T01:52:21;4.85;;;1.37;;
61144;SDS011;47026;51.208;3.288;2022-08-01T01:54:49;4.53;;;1.20;;
61144;SDS011;47026;51.208;3.288;2022-08-01T01:57:17;2.37;;;1.20;;
61144;SDS011;47026;51.208;3.288;2022-08-01T01:59:46;2.47;;;1.50;;
61144;SDS011;47026;51.208;3.288;2022-08-01T02:02:15;1.87;;;1.20;;
61144;SDS011;47026;51.208;3.288;2022-08-01T02:04:43;3.72;;;1.20;;
61144;SDS011;47026;51.208;3.288;2022-08-01T02:07:12;2.80;;;1.20;;
61144;SDS011;47026;51.208;3.288;2022-08-01T02:09:42;2.90;;;1.17;;
61144;SDS011;47026;51.208;3.288;2022-08-01T02:12:10;4.15;;;1.40;;
61144;SDS011;47026;51.208;3.288;2022-08-01T02:14:37;3.53;;;1.30;;
61144;SDS011;47026;51.208;3.288;2022-08-01T02:17:08;2.53;;;1.10;;
61144;SDS011;47026;51.208;3.288;2022-08-01T02:19:36;4.37;;;1.30;;
61144;SDS011;47026;51.208;3.288;2022-08-01T02:22:08;1.90;;;1.15;;
61144;SDS011;47026;51.208;3.288;2022-08-01T02:30:25;2.80;;;1.40;;
61144;SDS011;47026;51.208;3.288;2022-08-01T02:33:02;2.70;;;1.30;;
61144;SDS011;47026;51.208;3.288;2022-08-01T02:35:32;3.12;;;1.50;;
61144;SDS011;47026;51.208;3.288;2022-08-01T02:38:01;3.20;;;1.27;;
61144;SDS011;47026;51.208;3.288;2022-08-01T02:40:29;4.00;;;1.42;;
61144;SDS011;47026;51.208;3.288;2022-08-01T02:42:59;3.12;;;1.45;;
61144;SDS011;47026;51.208;3.288;2022-08-01T02:45:27;4.55;;;1.65;;
61144;SDS011;47026;51.208;3.288;2022-08-01T02:48:01;1.40;;;1.30;;
61144;SDS011;47026;51.208;3.288;2022-08-01T02:50:33;2.50;;;1.40;;
61144;SDS011;47026;51.208;3.288;2022-08-01T02:53:00;2.65;;;1.45;;
61144;SDS011;47026;51.208;3.288;2022-08-01T02:55:29;3.97;;;1.55;;
61144;SDS011;47026;51.208;3.288;2022-08-01T02:57:57;2.28;;;1.20;;
61144;SDS011;47026;51.208;3.288;2022-08-01T03:00:26;2.00;;;1.60;;
61144;SDS011;47026;51.208;3.288;2022-08-01T03:02:53;4.95;;;1.70;;
61144;SDS011;47026;51.208;3.288;2022-08-01T03:05:20;2.25;;;1.20;;
61144;SDS011;47026;51.208;3.288;2022-08-01T03:07:47;2.45;;;1.52;;
61144;SDS011;47026;51.208;3.288;2022-08-01T03:10:15;2.03;;;1.20;;
61144;SDS011;47026;51.208;3.288;2022-08-01T03:12:42;1.75;;;1.40;;
61144;SDS011;47026;51.208;3.288;2022-08-01T03:15:10;3.30;;;1.25;;
61144;SDS011;47026;51.208;3.288;2022-08-01T03:17:38;2.83;;;1.40;;
61144;SDS011;47026;51.208;3.288;2022-08-01T03:20:06;2.50;;;1.65;;
61144;SDS011;47026;51.208;3.288;2022-08-01T03:22:35;1.17;;;1.08;;
61144;SDS011;47026;51.208;3.288;2022-08-01T03:25:05;2.35;;;1.35;;
61144;SDS011;47026;51.208;3.288;2022-08-01T03:27:33;2.00;;;1.30;;
61144;SDS011;47026;51.208;3.288;2022-08-01T03:30:03;2.67;;;1.12;;
61144;SDS011;47026;51.208;3.288;2022-08-01T03:32:30;2.15;;;1.10;;
61144;SDS011;47026;51.208;3.288;2022-08-01T03:34:57;1.75;;;1.27;;
61144;SDS011;47026;51.208;3.288;2022-08-01T03:37:25;2.10;;;1.33;;
61144;SDS011;47026;51.208;3.288;2022-08-01T03:43:05;1.55;;;1.05;;
61144;SDS011;47026;51.208;3.288;2022-08-01T03:45:52;1.60;;;1.20;;
61144;SDS011;47026;51.208;3.288;2022-08-01T03:48:24;2.05;;;1.23;;
61144;SDS011;47026;51.208;3.288;2022-08-01T03:50:54;2.58;;;1.20;;
61144;SDS011;47026;51.208;3.288;2022-08-01T03:53:22;1.25;;;0.93;;
61144;SDS011;47026;51.208;3.288;2022-08-01T03:55:51;3.03;;;1.10;;
61144;SDS011;47026;51.208;3.288;2022-08-01T03:58:19;1.30;;;1.17;;
61144;SDS011;47026;51.208;3.288;2022-08-01T04:00:46;2.45;;;1.40;;
61144;SDS011;47026;51.208;3.288;2022-08-01T04:03:13;1.83;;;1.50;;
61144;SDS011;47026;51.208;3.288;2022-08-01T04:05:40;2.37;;;1.40;;
61144;SDS011;47026;51.208;3.288;2022-08-01T04:08:07;2.17;;;1.60;;
61144;SDS011;47026;51.208;3.288;2022-08-01T04:10:46;2.33;;;2.10;;
61144;SDS011;47026;51.208;3.288;2022-08-01T04:13:12;5.37;;;1.80;;
61144;SDS011;47026;51.208;3.288;2022-08-01T04:15:38;2.35;;;1.52;;
61144;SDS011;47026;51.208;3.288;2022-08-01T04:18:04;5.60;;;3.35;;
61144;SDS011;47026;51.208;3.288;2022-08-01T04:20:31;2.90;;;2.60;;
61144;SDS011;47026;51.208;3.288;2022-08-01T04:22:57;2.58;;;1.42;;
61144;SDS011;47026;51.208;3.288;2022-08-01T04:25:28;2.40;;;1.62;;
61144;SDS011;47026;51.208;3.288;2022-08-01T04:27:58;3.30;;;2.12;;
61144;SDS011;47026;51.208;3.288;2022-08-01T04:30:29;2.50;;;1.75;;
61144;SDS011;47026;51.208;3.288;2022-08-01T04:33:00;2.60;;;1.80;;
61144;SDS011;47026;51.208;3.288;2022-08-01T04:35:30;3.25;;;1.85;;
61144;SDS011;47026;51.208;3.288;2022-08-01T04:37:57;2.50;;;1.87;;
61144;SDS011;47026;51.208;3.288;2022-08-01T04:40:26;3.25;;;1.70;;
61144;SDS011;47026;51.208;3.288;2022-08-01T04:42:59;2.60;;;1.60;;
61144;SDS011;47026;51.208;3.288;2022-08-01T04:45:25;3.37;;;2.03;;
61144;SDS011;47026;51.208;3.288;2022-08-01T04:47:52;4.28;;;2.08;;
61144;SDS011;47026;51.208;3.288;2022-08-01T04:50:19;4.00;;;2.28;;
61144;SDS011;47026;51.208;3.288;2022-08-01T04:52:48;4.03;;;2.10;;
61144;SDS011;47026;51.208;3.288;2022-08-01T04:55:14;5.20;;;2.28;;
61144;SDS011;47026;51.208;3.288;2022-08-01T04:57:42;3.12;;;1.90;;
61144;SDS011;47026;51.208;3.288;2022-08-01T05:00:11;3.65;;;1.90;;
61144;SDS011;47026;51.208;3.288;2022-08-01T05:02:37;6.90;;;4.57;;
61144;SDS011;47026;51.208;3.288;2022-08-01T05:05:03;10.48;;;5.82;;
61144;SDS011;47026;51.208;3.288;2022-08-01T05:07:33;8.82;;;5.55;;
61144;SDS011;47026;51.208;3.288;2022-08-01T05:10:01;5.05;;;3.20;;
61144;SDS011;47026;51.208;3.288;2022-08-01T05:12:29;5.28;;;2.17;;
61144;SDS011;47026;51.208;3.288;2022-08-01T05:14:57;2.92;;;2.10;;
61144;SDS011;47026;51.208;3.288;2022-08-01T05:17:26;2.72;;;2.28;;
61144;SDS011;47026;51.208;3.288;2022-08-01T05:19:52;3.28;;;2.40;;
61144;SDS011;47026;51.208;3.288;2022-08-01T05:22:18;3.17;;;1.92;;
61144;SDS011;47026;51.208;3.288;2022-08-01T05:24:44;2.85;;;2.30;;
61144;SDS011;47026;51.208;3.288;2022-08-01T05:27:12;3.45;;;2.00;;
61144;SDS011;47026;51.208;3.288;2022-08-01T05:29:38;4.03;;;2.15;;
61144;SDS011;47026;51.208;3.288;2022-08-01T05:32:04;5.50;;;1.95;;
61144;SDS011;47026;51.208;3.288;2022-08-01T05:34:30;3.50;;;1.95;;
61144;SDS011;47026;51.208;3.288;2022-08-01T05:36:56;5.07;;;2.58;;
61144;SDS011;47026;51.208;3.288;2022-08-01T05:39:22;6.82;;;2.22;;
61144;SDS011;47026;51.208;3.288;2022-08-01T05:41:48;4.95;;;2.45;;
61144;SDS011;47026;51.208;3.288;2022-08-01T05:44:14;4.47;;;2.65;;
61144;SDS011;47026;51.208;3.288;2022-08-01T05:46:40;4.57;;;1.90;;
61144;SDS011;47026;51.208;3.288;2022-08-01T05:49:06;4.47;;;2.35;;
61144;SDS011;47026;51.208;3.288;2022-08-01T05:51:32;8.23;;;2.25;;
61144;SDS011;47026;51.208;3.288;2022-08-01T05:53:59;3.47;;;2.12;;
61144;SDS011;47026;51.208;3.288;2022-08-01T05:56:25;4.97;;;2.08;;
61144;SDS011;47026;51.208;3.288;2022-08-01T05:58:51;3.67;;;2.17;;
61144;SDS011;47026;51.208;3.288;2022-08-01T06:01:18;2.70;;;1.98;;
61144;SDS011;47026;51.208;3.288;2022-08-01T06:03:44;4.15;;;1.65;;
61144;SDS011;47026;51.208;3.288;2022-08-01T06:06:10;3.12;;;1.67;;
61144;SDS011;47026;51.208;3.288;2022-08-01T06:08:36;3.87;;;1.75;;
61144;SDS011;47026;51.208;3.288;2022-08-01T06:11:02;4.35;;;1.90;;
61144;SDS011;47026;51.208;3.288;2022-08-01T06:13:28;4.12;;;1.90;;
61144;SDS011;47026;51.208;3.288;2022-08-01T06:15:54;3.92;;;1.70;;
61144;SDS011;47026;51.208;3.288;2022-08-01T06:18:20;1.75;;;1.42;;
61144;SDS011;47026;51.208;3.288;2022-08-01T06:20:47;3.40;;;1.37;;
61144;SDS011;47026;51.208;3.288;2022-08-01T06:23:13;3.33;;;1.37;;
61144;SDS011;47026;51.208;3.288;2022-08-01T06:25:41;2.10;;;1.30;;
61144;SDS011;47026;51.208;3.288;2022-08-01T06:28:08;2.05;;;1.20;;
61144;SDS011;47026;51.208;3.288;2022-08-01T06:30:34;2.28;;;1.30;;
61144;SDS011;47026;51.208;3.288;2022-08-01T06:33:00;2.47;;;1.60;;
61144;SDS011;47026;51.208;3.288;2022-08-01T06:35:26;1.10;;;1.00;;
61144;SDS011;47026;51.208;3.288;2022-08-01T06:37:54;2.15;;;1.10;;
61144;SDS011;47026;51.208;3.288;2022-08-01T06:40:21;2.37;;;1.27;;
61144;SDS011;47026;51.208;3.288;2022-08-01T06:42:46;1.55;;;1.00;;
61144;SDS011;47026;51.208;3.288;2022-08-01T06:45:12;2.10;;;1.37;;
61144;SDS011;47026;51.208;3.288;2022-08-01T06:47:43;2.70;;;1.25;;
61144;SDS011;47026;51.208;3.288;2022-08-01T06:50:10;1.42;;;1.10;;
61144;SDS011;47026;51.208;3.288;2022-08-01T06:52:37;1.67;;;1.23;;
61144;SDS011;47026;51.208;3.288;2022-08-01T06:55:03;1.20;;;0.90;;
61144;SDS011;47026;51.208;3.288;2022-08-01T06:57:29;2.08;;;0.90;;
61144;SDS011;47026;51.208;3.288;2022-08-01T06:59:55;1.87;;;0.88;;
61144;SDS011;47026;51.208;3.288;2022-08-01T07:02:21;1.87;;;0.88;;
61144;SDS011;47026;51.208;3.288;2022-08-01T07:04:48;1.40;;;1.02;;
61144;SDS011;47026;51.208;3.288;2022-08-01T07:07:14;2.28;;;0.90;;
61144;SDS011;47026;51.208;3.288;2022-08-01T07:09:40;1.37;;;0.77;;
61144;SDS011;47026;51.208;3.288;2022-08-01T07:12:07;1.25;;;0.70;;
61144;SDS011;47026;51.208;3.288;2022-08-01T07:14:33;1.02;;;0.70;;
61144;SDS011;47026;51.208;3.288;2022-08-01T07:16:59;1.50;;;0.90;;
61144;SDS011;47026;51.208;3.288;2022-08-01T07:19:25;1.80;;;0.90;;
61144;SDS011;47026;51.208;3.288;2022-08-01T07:21:51;1.40;;;0.60;;
61144;SDS011;47026;51.208;3.288;2022-08-01T07:24:18;1.00;;;0.70;;
61144;SDS011;47026;51.208;3.288;2022-08-01T07:26:44;2.17;;;0.70;;
61144;SDS011;47026;51.208;3.288;2022-08-01T07:29:12;1.92;;;0.68;;
61144;SDS011;47026;51.208;3.288;2022-08-01T07:31:38;0.60;;;0.60;;
61144;SDS011;47026;51.208;3.288;2022-08-01T07:34:04;0.75;;;0.70;;
61144;SDS011;47026;51.208;3.288;2022-08-01T07:36:30;0.98;;;0.60;;
61144;SDS011;47026;51.208;3.288;2022-08-01T07:38:56;1.17;;;0.65;;
61144;SDS011;47026;51.208;3.288;2022-08-01T07:41:22;1.15;;;0.70;;
61144;SDS011;47026;51.208;3.288;2022-08-01T07:43:48;0.82;;;0.70;;
61144;SDS011;47026;51.208;3.288;2022-08-01T07:46:14;0.82;;;0.73;;
61144;SDS011;47026;51.208;3.288;2022-08-01T07:48:40;2.65;;;1.10;;
61144;SDS011;47026;51.208;3.288;2022-08-01T07:51:06;0.93;;;0.90;;
61144;SDS011;47026;51.208;3.288;2022-08-01T07:53:34;1.33;;;1.20;;
61144;SDS011;47026;51.208;3.288;2022-08-01T07:56:00;3.30;;;1.20;;
61144;SDS011;47026;51.208;3.288;2022-08-01T07:58:27;1.67;;;1.10;;
61144;SDS011;47026;51.208;3.288;2022-08-01T08:00:54;1.37;;;1.00;;
61144;SDS011;47026;51.208;3.288;2022-08-01T08:03:19;2.28;;;1.10;;
61144;SDS011;47026;51.208;3.288;2022-08-01T08:05:45;0.95;;;0.85;;
61144;SDS011;47026;51.208;3.288;2022-08-01T08:08:10;1.02;;;0.77;;
61144;SDS011;47026;51.208;3.288;2022-08-01T08:10:36;0.98;;;0.77;;
61144;SDS011;47026;51.208;3.288;2022-08-01T08:13:02;1.45;;;0.80;;
61144;SDS011;47026;51.208;3.288;2022-08-01T08:15:28;2.30;;;0.95;;
61144;SDS011;47026;51.208;3.288;2022-08-01T08:17:54;0.95;;;0.82;;
61144;SDS011;47026;51.208;3.288;2022-08-01T08:20:20;1.05;;;0.93;;
61144;SDS011;47026;51.208;3.288;2022-08-01T08:22:54;0.75;;;0.75;;
61144;SDS011;47026;51.208;3.288;2022-08-01T08:25:21;0.95;;;0.85;;
61144;SDS011;47026;51.208;3.288;2022-08-01T08:27:47;2.70;;;0.90;;
61144;SDS011;47026;51.208;3.288;2022-08-01T08:30:13;2.42;;;0.80;;
61144;SDS011;47026;51.208;3.288;2022-08-01T08:32:39;0.80;;;0.80;;
61144;SDS011;47026;51.208;3.288;2022-08-01T08:35:06;1.58;;;0.77;;
61144;SDS011;47026;51.208;3.288;2022-08-01T08:37:33;1.62;;;0.88;;
61144;SDS011;47026;51.208;3.288;2022-08-01T08:40:00;1.92;;;0.85;;
61144;SDS011;47026;51.208;3.288;2022-08-01T08:42:25;1.83;;;0.73;;
61144;SDS011;47026;51.208;3.288;2022-08-01T08:44:51;3.50;;;0.73;;
61144;SDS011;47026;51.208;3.288;2022-08-01T08:47:20;0.90;;;0.80;;
61144;SDS011;47026;51.208;3.288;2022-08-01T08:49:48;1.58;;;0.77;;
61144;SDS011;47026;51.208;3.288;2022-08-01T08:52:15;1.65;;;0.90;;
61144;SDS011;47026;51.208;3.288;2022-08-01T08:54:43;1.67;;;1.10;;
61144;SDS011;47026;51.208;3.288;2022-08-01T08:57:13;1.58;;;0.93;;
61144;SDS011;47026;51.208;3.288;2022-08-01T08:59:39;2.65;;;0.95;;
61144;SDS011;47026;51.208;3.288;2022-08-01T09:02:07;1.58;;;1.00;;
61144;SDS011;47026;51.208;3.288;2022-08-01T09:04:40;3.00;;;1.00;;
61144;SDS011;47026;51.208;3.288;2022-08-01T09:07:06;1.70;;;1.02;;
61144;SDS011;47026;51.208;3.288;2022-08-01T09:09:42;2.92;;;0.93;;
61144;SDS011;47026;51.208;3.288;2022-08-01T09:12:08;2.05;;;1.50;;
61144;SDS011;47026;51.208;3.288;2022-08-01T09:14:34;0.95;;;0.90;;
61144;SDS011;47026;51.208;3.288;2022-08-01T09:17:10;3.33;;;1.45;;
61144;SDS011;47026;51.208;3.288;2022-08-01T09:19:47;2.08;;;1.17;;
61144;SDS011;47026;51.208;3.288;2022-08-01T09:22:19;2.78;;;1.40;;
61144;SDS011;47026;51.208;3.288;2022-08-01T09:24:57;3.10;;;1.40;;
61144;SDS011;47026;51.208;3.288;2022-08-01T09:27:30;1.75;;;1.20;;
61144;SDS011;47026;51.208;3.288;2022-08-01T09:30:06;1.67;;;1.30;;
61144;SDS011;47026;51.208;3.288;2022-08-01T09:32:32;2.03;;;1.08;;
61144;SDS011;47026;51.208;3.288;2022-08-01T09:35:01;2.33;;;1.60;;
61144;SDS011;47026;51.208;3.288;2022-08-01T09:37:52;1.67;;;1.50;;
61144;SDS011;47026;51.208;3.288;2022-08-01T09:40:45;4.25;;;1.73;;
61144;SDS011;47026;51.208;3.288;2022-08-01T09:43:17;3.47;;;1.70;;
61144;SDS011;47026;51.208;3.288;2022-08-01T09:45:44;5.03;;;1.60;;
61144;SDS011;47026;51.208;3.288;2022-08-01T09:48:10;3.08;;;1.80;;
61144;SDS011;47026;51.208;3.288;2022-08-01T09:50:43;2.72;;;1.65;;
61144;SDS011;47026;51.208;3.288;2022-08-01T09:53:13;2.45;;;2.05;;
61144;SDS011;47026;51.208;3.288;2022-08-01T09:55:41;2.37;;;1.80;;
61144;SDS011;47026;51.208;3.288;2022-08-01T09:58:07;4.22;;;1.90;;
61144;SDS011;47026;51.208;3.288;2022-08-01T10:00:36;2.37;;;1.83;;
61144;SDS011;47026;51.208;3.288;2022-08-01T10:03:18;2.55;;;2.00;;
61144;SDS011;47026;51.208;3.288;2022-08-01T10:05:45;2.90;;;1.77;;
61144;SDS011;47026;51.208;3.288;2022-08-01T10:08:12;3.05;;;1.92;;
61144;SDS011;47026;51.208;3.288;2022-08-01T10:10:38;3.15;;;1.70;;
61144;SDS011;47026;51.208;3.288;2022-08-01T10:13:04;2.92;;;1.70;;
61144;SDS011;47026;51.208;3.288;2022-08-01T10:15:32;4.20;;;1.55;;
61144;SDS011;47026;51.208;3.288;2022-08-01T10:18:00;3.00;;;1.60;;
61144;SDS011;47026;51.208;3.288;2022-08-01T10:20:32;1.92;;;1.42;;
61144;SDS011;47026;51.208;3.288;2022-08-01T10:23:00;2.45;;;1.48;;
61144;SDS011;47026;51.208;3.288;2022-08-01T10:25:28;3.45;;;1.85;;
61144;SDS011;47026;51.208;3.288;2022-08-01T10:28:06;2.45;;;1.67;;
61144;SDS011;47026;51.208;3.288;2022-08-01T10:30:41;3.72;;;1.83;;
61144;SDS011;47026;51.208;3.288;2022-08-01T10:33:08;2.15;;;1.48;;
61144;SDS011;47026;51.208;3.288;2022-08-01T10:35:35;3.25;;;1.75;;
61144;SDS011;47026;51.208;3.288;2022-08-01T10:38:03;3.58;;;1.60;;
61144;SDS011;47026;51.208;3.288;2022-08-01T10:40:29;3.95;;;1.90;;
61144;SDS011;47026;51.208;3.288;2022-08-01T10:42:55;2.25;;;1.40;;
61144;SDS011;47026;51.208;3.288;2022-08-01T10:45:21;2.53;;;1.83;;
61144;SDS011;47026;51.208;3.288;2022-08-01T10:50:38;4.07;;;2.17;;
61144;SDS011;47026;51.208;3.288;2022-08-01T10:58:14;2.95;;;1.42;;
61144;SDS011;47026;51.208;3.288;2022-08-01T11:01:21;4.40;;;1.30;;
61144;SDS011;47026;51.208;3.288;2022-08-01T11:09:04;3.25;;;1.37;;
61144;SDS011;47026;51.208;3.288;2022-08-01T11:14:25;4.35;;;2.00;;
61144;SDS011;47026;51.208;3.288;2022-08-01T11:16:51;3.28;;;1.30;;
61144;SDS011;47026;51.208;3.288;2022-08-01T11:19:17;4.30;;;1.58;;
61144;SDS011;47026;51.208;3.288;2022-08-01T11:27:18;3.62;;;2.00;;
61144;SDS011;47026;51.208;3.288;2022-08-01T11:32:55;2.60;;;1.52;;
61144;SDS011;47026;51.208;3.288;2022-08-01T11:35:22;5.00;;;1.87;;
61144;SDS011;47026;51.208;3.288;2022-08-01T11:37:50;4.03;;;1.52;;
61144;SDS011;47026;51.208;3.288;2022-08-01T11:40:24;2.55;;;1.30;;
61144;SDS011;47026;51.208;3.288;2022-08-01T11:45:48;4.97;;;1.30;;
61144;SDS011;47026;51.208;3.288;2022-08-01T11:48:24;5.00;;;1.70;;
61144;SDS011;47026;51.208;3.288;2022-08-01T11:50:51;2.97;;;1.10;;
61144;SDS011;47026;51.208;3.288;2022-08-01T11:53:18;4.43;;;1.48;;
61144;SDS011;47026;51.208;3.288;2022-08-01T11:55:48;4.50;;;1.42;;
61144;SDS011;47026;51.208;3.288;2022-08-01T11:58:16;4.00;;;1.60;;
61144;SDS011;47026;51.208;3.288;2022-08-01T12:00:50;2.80;;;1.60;;
61144;SDS011;47026;51.208;3.288;2022-08-01T12:03:24;3.90;;;1.50;;
61144;SDS011;47026;51.208;3.288;2022-08-01T12:05:52;3.33;;;1.42;;
61144;SDS011;47026;51.208;3.288;2022-08-01T12:08:29;3.28;;;1.40;;
61144;SDS011;47026;51.208;3.288;2022-08-01T12:11:03;3.97;;;1.20;;
61144;SDS011;47026;51.208;3.288;2022-08-01T12:13:39;2.12;;;1.30;;
61144;SDS011;47026;51.208;3.288;2022-08-01T12:16:10;2.60;;;1.08;;
61144;SDS011;47026;51.208;3.288;2022-08-01T12:18:40;2.72;;;1.10;;
61144;SDS011;47026;51.208;3.288;2022-08-01T12:21:07;3.87;;;1.00;;
61144;SDS011;47026;51.208;3.288;2022-08-01T12:23:33;1.65;;;0.70;;
61144;SDS011;47026;51.208;3.288;2022-08-01T12:25:59;3.87;;;1.02;;
61144;SDS011;47026;51.208;3.288;2022-08-01T12:28:26;3.33;;;1.20;;
61144;SDS011;47026;51.208;3.288;2022-08-01T12:30:52;2.55;;;1.10;;
61144;SDS011;47026;51.208;3.288;2022-08-01T12:33:19;2.10;;;0.90;;
61144;SDS011;47026;51.208;3.288;2022-08-01T12:35:45;3.40;;;0.98;;
61144;SDS011;47026;51.208;3.288;2022-08-01T12:38:16;3.05;;;0.77;;
61144;SDS011;47026;51.208;3.288;2022-08-01T12:40:44;1.95;;;1.00;;
61144;SDS011;47026;51.208;3.288;2022-08-01T12:43:15;2.17;;;0.98;;
61144;SDS011;47026;51.208;3.288;2022-08-01T12:45:43;3.92;;;1.02;;
61144;SDS011;47026;51.208;3.288;2022-08-01T12:48:10;5.40;;;3.67;;
61144;SDS011;47026;51.208;3.288;2022-08-01T12:50:38;1.42;;;1.20;;
61144;SDS011;47026;51.208;3.288;2022-08-01T12:53:07;1.73;;;0.70;;
61144;SDS011;47026;51.208;3.288;2022-08-01T12:55:40;2.15;;;1.12;;
61144;SDS011;47026;51.208;3.288;2022-08-01T12:58:17;3.92;;;1.20;;
61144;SDS011;47026;51.208;3.288;2022-08-01T13:00:44;4.10;;;1.20;;
61144;SDS011;47026;51.208;3.288;2022-08-01T13:03:13;3.25;;;1.10;;
61144;SDS011;47026;51.208;3.288;2022-08-01T13:08:14;4.18;;;1.42;;
61144;SDS011;47026;51.208;3.288;2022-08-01T13:10:44;3.47;;;1.10;;
61144;SDS011;47026;51.208;3.288;2022-08-01T13:13:12;3.00;;;1.10;;
61144;SDS011;47026;51.208;3.288;2022-08-01T13:15:40;2.53;;;0.90;;
61144;SDS011;47026;51.208;3.288;2022-08-01T13:26:07;2.90;;;1.00;;
61144;SDS011;47026;51.208;3.288;2022-08-01T13:28:33;3.30;;;0.90;;
61144;SDS011;47026;51.208;3.288;2022-08-01T13:31:08;4.00;;;0.90;;
61144;SDS011;47026;51.208;3.288;2022-08-01T13:33:43;6.10;;;3.50;;
61144;SDS011;47026;51.208;3.288;2022-08-01T13:36:10;3.35;;;1.20;;
61144;SDS011;47026;51.208;3.288;2022-08-01T13:38:37;2.50;;;0.90;;
61144;SDS011;47026;51.208;3.288;2022-08-01T13:41:22;2.12;;;1.02;;
61144;SDS011;47026;51.208;3.288;2022-08-01T13:43:48;2.22;;;1.00;;
61144;SDS011;47026;51.208;3.288;2022-08-01T13:46:14;4.00;;;1.20;;
61144;SDS011;47026;51.208;3.288;2022-08-01T13:48:40;3.47;;;1.10;;
61144;SDS011;47026;51.208;3.288;2022-08-01T13:51:06;2.08;;;0.90;;
61144;SDS011;47026;51.208;3.288;2022-08-01T13:53:32;2.12;;;1.15;;
61144;SDS011;47026;51.208;3.288;2022-08-01T13:55:58;3.25;;;0.93;;
61144;SDS011;47026;51.208;3.288;2022-08-01T13:58:24;2.62;;;1.30;;
61144;SDS011;47026;51.208;3.288;2022-08-01T14:00:50;4.43;;;1.27;;
61144;SDS011;47026;51.208;3.288;2022-08-01T14:03:16;8.15;;;3.67;;
61144;SDS011;47026;51.208;3.288;2022-08-01T14:05:44;8.88;;;1.30;;
61144;SDS011;47026;51.208;3.288;2022-08-01T14:08:11;4.43;;;1.00;;
61144;SDS011;47026;51.208;3.288;2022-08-01T14:10:37;17.83;;;3.25;;
61144;SDS011;47026;51.208;3.288;2022-08-01T14:13:03;3.83;;;1.00;;
61144;SDS011;47026;51.208;3.288;2022-08-01T14:15:30;3.70;;;1.10;;
61144;SDS011;47026;51.208;3.288;2022-08-01T14:17:57;12.10;;;2.12;;
61144;SDS011;47026;51.208;3.288;2022-08-01T14:20:23;3.35;;;1.00;;
61144;SDS011;47026;51.208;3.288;2022-08-01T14:22:49;3.92;;;1.08;;
61144;SDS011;47026;51.208;3.288;2022-08-01T14:25:15;2.65;;;1.00;;
61144;SDS011;47026;51.208;3.288;2022-08-01T14:27:43;3.47;;;1.30;;
61144;SDS011;47026;51.208;3.288;2022-08-01T14:30:20;6.50;;;1.50;;
61144;SDS011;47026;51.208;3.288;2022-08-01T14:32:46;3.35;;;1.00;;
61144;SDS011;47026;51.208;3.288;2022-08-01T14:35:12;2.90;;;1.00;;
61144;SDS011;47026;51.208;3.288;2022-08-01T14:37:38;3.28;;;1.20;;
61144;SDS011;47026;51.208;3.288;2022-08-01T14:40:05;2.65;;;0.90;;
61144;SDS011;47026;51.208;3.288;2022-08-01T14:42:34;3.40;;;0.98;;
61144;SDS011;47026;51.208;3.288;2022-08-01T14:45:01;2.90;;;1.17;;
61144;SDS011;47026;51.208;3.288;2022-08-01T14:47:27;2.92;;;1.15;;
61144;SDS011;47026;51.208;3.288;2022-08-01T14:49:53;3.53;;;0.90;;
61144;SDS011;47026;51.208;3.288;2022-08-01T14:52:19;1.52;;;0.80;;
61144;SDS011;47026;51.208;3.288;2022-08-01T14:54:45;3.45;;;0.90;;
61144;SDS011;47026;51.208;3.288;2022-08-01T14:57:11;2.30;;;0.90;;
61144;SDS011;47026;51.208;3.288;2022-08-01T14:59:37;1.75;;;0.80;;
61144;SDS011;47026;51.208;3.288;2022-08-01T15:02:03;2.62;;;0.90;;
61144;SDS011;47026;51.208;3.288;2022-08-01T15:04:28;4.60;;;1.00;;
61144;SDS011;47026;51.208;3.288;2022-08-01T15:06:55;2.67;;;0.82;;
61144;SDS011;47026;51.208;3.288;2022-08-01T15:09:22;3.40;;;0.90;;
61144;SDS011;47026;51.208;3.288;2022-08-01T15:11:48;1.95;;;0.70;;
61144;SDS011;47026;51.208;3.288;2022-08-01T15:14:14;1.90;;;0.80;;
61144;SDS011;47026;51.208;3.288;2022-08-01T15:16:58;3.22;;;0.98;;
61144;SDS011;47026;51.208;3.288;2022-08-01T15:19:23;1.95;;;0.80;;
61144;SDS011;47026;51.208;3.288;2022-08-01T15:21:49;3.50;;;0.80;;
61144;SDS011;47026;51.208;3.288;2022-08-01T15:24:15;3.62;;;1.25;;
61144;SDS011;47026;51.208;3.288;2022-08-01T15:26:41;2.60;;;1.50;;
61144;SDS011;47026;51.208;3.288;2022-08-01T15:29:07;5.18;;;1.30;;
61144;SDS011;47026;51.208;3.288;2022-08-01T15:31:33;3.42;;;0.90;;
61144;SDS011;47026;51.208;3.288;2022-08-01T15:33:59;1.85;;;0.85;;
61144;SDS011;47026;51.208;3.288;2022-08-01T15:36:25;3.97;;;1.02;;
61144;SDS011;47026;51.208;3.288;2022-08-01T15:38:51;1.65;;;0.95;;
61144;SDS011;47026;51.208;3.288;2022-08-01T15:41:17;7.07;;;1.30;;
61144;SDS011;47026;51.208;3.288;2022-08-01T15:43:43;4.37;;;1.20;;
61144;SDS011;47026;51.208;3.288;2022-08-01T15:46:09;2.30;;;1.05;;
61144;SDS011;47026;51.208;3.288;2022-08-01T15:48:35;4.32;;;1.20;;
61144;SDS011;47026;51.208;3.288;2022-08-01T15:51:01;2.45;;;1.10;;
61144;SDS011;47026;51.208;3.288;2022-08-01T15:53:27;3.83;;;1.10;;
61144;SDS011;47026;51.208;3.288;2022-08-01T15:55:53;2.90;;;1.27;;